ADDS METAR Data INFO
IDs: Format: Raw Decoded Include TAF

Data at: 2018 UTC 18 Jul 2018

KJYO 181955Z AUTO 01007KT 10SM BKN060 BKN080 28/15 A2998 RMK AO2
KJYO 181935Z AUTO 35009G14KT 10SM SCT070 SCT080 29/15 A2999 RMK AO2
KJYO 181915Z AUTO 29006KT 10SM SCT070 BKN080 27/15 A2999 RMK AO2
KJYO 181855Z AUTO 01005KT 10SM SCT060 SCT070 28/15 A2999 RMK AO2
KJYO 181835Z AUTO 02003G15KT 10SM SCT065 SCT070 28/15 A2999 RMK AO2
KJYO 181815Z AUTO 01009G14KT 10SM SCT065 SCT075 28/15 A2999 RMK AO2
KJYO 181755Z AUTO 35011G15KT 10SM SCT055 28/14 A2999 RMK AO2
KJYO 181735Z AUTO 01007G15KT 10SM BKN065 28/16 A2999 RMK AO2
KJYO 181715Z AUTO 34008KT 10SM SCT060 27/15 A3000 RMK AO2
KJYO 181655Z AUTO 01007G14KT 320V030 10SM SCT050 27/16 A3000 RMK AO2
KJYO 181635Z AUTO 33011G15KT 10SM SCT050 27/16 A3000 RMK AO2
KJYO 181615Z AUTO 35013G18KT 10SM SCT050 27/15 A3000 RMK AO2
KJYO 181555Z AUTO 36008KT 310V040 10SM CLR 27/16 A3000 RMK AO2
KJYO 181535Z AUTO 34009KT 320V030 10SM CLR 27/15 A3001 RMK AO2
KJYO 181515Z AUTO 02008G16KT 10SM CLR 26/16 A3001 RMK AO2
KJYO 181455Z AUTO 01011KT 10SM CLR 26/16 A3001 RMK AO2
KJYO 181435Z AUTO 33007KT 10SM CLR 26/17 A3001 RMK AO2
KJYO 181415Z AUTO 03007KT 340V040 10SM CLR 25/16 A3001 RMK AO2
KJYO 181355Z AUTO 35004KT 10SM CLR 24/17 A3001 RMK AO2
KJYO 181335Z AUTO 34005KT 10SM CLR 23/17 A3001 RMK AO2
KJYO 181315Z AUTO 34006KT 10SM CLR 23/17 A3001 RMK AO2
KJYO 181255Z AUTO 34007KT 10SM CLR 22/17 A3001 RMK AO2
KJYO 181235Z AUTO 33006KT 10SM CLR 22/17 A3001 RMK AO2
KJYO 181215Z AUTO 34005KT 10SM CLR 22/16 A3000 RMK AO2
KJYO 181155Z AUTO 00000KT 10SM CLR 21/16 A2999 RMK AO2 P0001
KJYO 181135Z AUTO 33008KT 10SM CLR 20/16 A2998 RMK AO2
KJYO 181115Z AUTO 32009KT 10SM CLR 20/16 A2997 RMK AO2
KJYO 181055Z AUTO 33009KT 10SM CLR 19/16 A2997 RMK AO2
KJYO 181035Z AUTO 32012G16KT 10SM CLR 18/16 A2996 RMK AO2
KJYO 181015Z AUTO 32012KT 10SM CLR 18/16 A2995 RMK AO2 LTG DSNT E
KJYO 180955Z AUTO 33010KT 10SM CLR 19/16 A2995 RMK AO2
KJYO 180935Z AUTO 32011KT 10SM CLR 19/16 A2995 RMK AO2
KJYO 180915Z AUTO 33006KT 10SM CLR 19/16 A2995 RMK AO2
KJYO 180855Z AUTO 33007KT 10SM CLR 19/17 A2994 RMK AO2
KJYO 180835Z AUTO 32007KT 10SM CLR 19/17 A2994 RMK AO2
KJYO 180815Z AUTO 31008KT 10SM CLR 19/17 A2994 RMK AO2
KJYO 180755Z AUTO 33006KT 10SM CLR 19/17 A2994 RMK AO2
KJYO 180735Z AUTO 32008KT 10SM SCT080 20/18 A2994 RMK AO2
KJYO 180715Z AUTO 31011KT 10SM SCT080 20/18 A2993 RMK AO2
KJYO 180655Z AUTO 33011KT 10SM CLR 20/18 A2993 RMK AO2
KJYO 180635Z AUTO 33010KT 10SM CLR 20/18 A2992 RMK AO2
KJYO 180615Z AUTO 33010KT 10SM CLR 21/19 A2992 RMK AO2
KJYO 180555Z AUTO 32011KT 10SM CLR 20/19 A2992 RMK AO2
KJYO 180535Z AUTO 32009KT 10SM CLR 21/20 A2992 RMK AO2
KJYO 180515Z AUTO 36005KT 10SM CLR 21/20 A2991 RMK AO2
KJYO 180455Z AUTO 01004KT 10SM CLR 21/20 A2991 RMK AO2
KJYO 180435Z AUTO 02004KT 10SM CLR 21/20 A2991 RMK AO2
KJYO 180415Z AUTO 02004KT 10SM CLR 21/20 A2992 RMK AO2
KJYO 180355Z AUTO 35005KT 10SM CLR 21/20 A2991 RMK AO2
KJYO 180335Z AUTO 35005KT 10SM CLR 20/20 A2990 RMK AO2
KJYO 180315Z AUTO 32004KT 10SM CLR 20/20 A2990 RMK AO2
KJYO 180255Z AUTO 33004KT 10SM CLR 20/20 A2990 RMK AO2
KJYO 180235Z AUTO 29003KT 10SM CLR 20/20 A2990 RMK AO2
KJYO 180215Z AUTO 36004KT 10SM SCT065 SCT095 SCT120 21/21 A2991 RMK AO2
KJYO 180155Z AUTO 02006KT 10SM SCT007 SCT040 BKN065 21/21 A2991 RMK AO2 P0009
KJYO 180135Z AUTO 04006KT 10SM RA SCT045 BKN070 BKN090 22/21 A2992 RMK AO2 LTG DSNT E P0009
KJYO 180115Z AUTO 03007G17KT 7SM -VCTSRA SCT011 BKN035 OVC070 22/22 A2989 RMK AO2 LTG DSNT NE P0009
KJYO 180055Z AUTO 34029G37KT 7SM +RA SCT030 SCT035 SCT043 25/22 A2989 RMK AO2 LTG DSNT NW THRU NE P0003
KJYO 180035Z AUTO 25003KT 10SM CLR 26/25 A2986 RMK AO2 LTG DSNT N AND NW
KJYO 180015Z AUTO 20003KT 10SM CLR 27/25 A2986 RMK AO2
KJYO 172355Z AUTO 00000KT 10SM CLR 29/23 A2985 RMK AO2
KJYO 172335Z AUTO 00000KT 10SM CLR 28/23 A2985 RMK AO2 LTG DSNT SW
KJYO 172315Z AUTO 00000KT 10SM CLR 28/23 A2984 RMK AO2 LTG DSNT SW
KJYO 172255Z AUTO 00000KT 10SM SCT120 28/23 A2984 RMK AO2
KJYO 172235Z AUTO 01003KT 10SM SCT120 28/23 A2983 RMK AO2
KJYO 172215Z AUTO 00000KT 10SM CLR 28/23 A2983 RMK AO2
KJYO 172155Z AUTO 34007KT 10SM CLR 29/22 A2982 RMK AO2 LTG DSNT E
KJYO 172135Z AUTO 34009KT 10SM CLR 29/23 A2982 RMK AO2
KJYO 172115Z AUTO 01008KT 10SM CLR 29/22 A2982 RMK AO2 LTG DSNT E
KJYO 172055Z AUTO 03007KT 10SM CLR 28/22 A2982 RMK AO2
KJYO 172035Z AUTO 02007KT 10SM SCT032 28/22 A2982 RMK AO2 LTG DSNT E
KJYO 172015Z AUTO 34008KT 10SM SCT018 SCT028 SCT032 28/22 A2983 RMK AO2 LTG DSNT SE
KJYO 171955Z AUTO 12006KT 10SM VCTS SCT017 BKN022 OVC120 26/24 A2984 RMK AO2 LTG DSNT E THRU S
KJYO 171935Z AUTO 20004KT 10SM SCT022 BKN044 OVC100 25/25 A2984 RMK AO2 LTG DSNT E THRU W
KJYO 171915Z AUTO 00000KT 10SM -RA SCT075 BKN085 BKN110 25/24 A2985 RMK AO2 LTG DSNT E THRU S
KJYO 171855Z AUTO 31004KT 10SM VCTS SCT050 BKN075 OVC110 25/23 A2984 RMK AO2 LTG DSNT ALQS P0019
KJYO 171835Z AUTO 23004KT 10SM SCT019 SCT028 OVC060 25/24 A2984 RMK AO2 LTG DSNT NE THRU SW P0019
KJYO 171815Z AUTO 24006KT 2 1/2SM TSRA SCT022 BKN030 OVC046 25/25 A2984 RMK AO2 VIS 1V5 LTG DSNT ALQS P0018
KJYO 171755Z AUTO 32012KT 2SM +RA SCT023 BKN049 OVC065 27/26 A2985 RMK AO2 LTG DSNT NE E AND SW P0015
KJYO 171735Z AUTO 33005KT 10SM BKN034 OVC065 31/23 A2984 RMK AO2 LTG DSNT N NE AND SW
KJYO 171715Z AUTO 01005KT 10SM OVC032 30/23 A2985 RMK AO2 LTG DSNT N AND NW
KJYO 171655Z AUTO 00000KT 10SM OVC032 30/23 A2986 RMK AO2 LTG DSNT W AND NW
KJYO 171635Z AUTO 00000KT 10SM BKN032 30/23 A2986 RMK AO2 LTG DSNT W AND NW
KJYO 171615Z AUTO 00000KT 10SM SCT030 SCT037 SCT050 30/24 A2987 RMK AO2 LTG DSNT NW
KJYO 171555Z AUTO 28004KT 10SM -RA SCT034 SCT039 SCT050 30/23 A2988 RMK AO2 LTG DSNT NW
KJYO 171535Z AUTO 00000KT 10SM CLR 31/22 A2988 RMK AO2
KJYO 171515Z AUTO 00000KT 10SM SCT085 30/24 A2988 RMK AO2
KJYO 171455Z AUTO 00000KT 10SM SCT085 30/23 A2988 RMK AO2
KJYO 171435Z AUTO 00000KT 10SM SCT085 29/23 A2988 RMK AO2 LTG DSNT W
KJYO 171415Z AUTO 00000KT 10SM CLR 28/23 A2988 RMK AO2
KJYO 171355Z AUTO 26003KT 10SM SCT080 29/23 A2989 RMK AO2
KJYO 171335Z AUTO 16003KT 10SM CLR 28/23 A2989 RMK AO2
KJYO 171315Z AUTO 12006KT 10SM SCT100 27/23 A2989 RMK AO2 LTG DSNT N
KJYO 171255Z AUTO 00000KT 10SM SCT100 26/22 A2989 RMK AO2 LTG DSNT N
KJYO 171235Z AUTO 00000KT 10SM SCT100 25/22 A2990 RMK AO2
KJYO 171215Z AUTO 00000KT 10SM CLR 23/22 A2991 RMK AO2
KJYO 171155Z AUTO 00000KT 10SM CLR 23/22 A2990 RMK AO2
KJYO 171135Z AUTO 18003KT 10SM CLR 22/22 A2990 RMK AO2
KJYO 171115Z AUTO 17003KT 10SM CLR 21/21 A2990 RMK AO2 LTG DSNT N
KJYO 171055Z AUTO 00000KT 10SM BKN110 21/21 A2991 RMK AO2 LTG DSNT N
KJYO 171035Z AUTO 10SM BKN110 21/21 A2990 RMK AO2
KJYO 171015Z AUTO 16004KT 10SM CLR 21/21 A2990 RMK AO2 LTG DSNT NW
KJYO 170955Z AUTO 16003KT 10SM CLR 21/21 A2990 RMK AO2
KJYO 170935Z AUTO 16003KT 10SM CLR 21/20 A2990 RMK AO2 LTG DSNT N AND NW
KJYO 170915Z AUTO 00000KT 10SM CLR 21/21 A2990 RMK AO2 LTG DSNT NW
KJYO 170855Z AUTO 00000KT 10SM CLR 21/21 A2991 RMK AO2
KJYO 170835Z AUTO 00000KT 10SM CLR 21/21 A2990 RMK AO2